Tropical Cyclones
[Index]
Main Index Home Page Stock Weather Photos Extreme Storms Discussion Storm News and Storm Chasing Reports Tropical Cyclones / Hurricanes / Typhoons Weather Data and Links Wild Fires / Bushfires Weather Observation Techniques Weather Picture Catalogue Tornado Pictures and Reports Stock Video Footage and DVDs for sale
Season 1989-1990 Tropical Cyclone WALTER Track Map
Season 1989-1990 Summaries: [BoM-AU] [JTWC-AU] [JTWC-SIO] [JTWC-SPAC] [JTWC-SH]
<<- Previous TC | BoM 1989-1990 Season | Next TC ->>

click for intensity scale information  Lat/long Grid: Show Hide

 Date Labels: Show Hide

Bureau of Meteorology Tropical Cyclone Data

Name: WALTER
Number: 727 / 198990_08

03 Mar 1990 18:00 UTC to 14 Mar 1990 12:00 UTC

    date/time    lat    long    hPa   cat  kts
1990-03-03 18   14.6    94.0   1000         31          
1990-03-04 00   14.8    94.0   1000         31          
1990-03-04 06   15.2    94.1   1000         31          
1990-03-04 12   15.7    94.4    998         35          
1990-03-04 18   16.2    94.8    995    1    39          
1990-03-05 00   17.0    95.5    995    1    39          
1990-03-05 06   17.7    96.2    992    1    43          
1990-03-05 12   18.3    96.8    990    1    47          
1990-03-05 18   19.2    97.4    987    1    51          
1990-03-06 00   20.0    98.0    985    2    54          
1990-03-06 06   20.5    98.2    985    2    54          
1990-03-06 12   21.0    98.0    988    1    49          
1990-03-06 18   21.3    97.5    991    1    45          
1990-03-07 00   21.2    96.8    993    1    41          
1990-03-07 06   21.1    95.8    995    1    39          
1990-03-07 12   20.9    95.6    995    1    39          
1990-03-07 18   20.5    95.0    995    1    39          
1990-03-08 00   20.2    94.9    995    1    39          
1990-03-08 06   19.8    95.0    996         37          
1990-03-08 12   19.3    95.1    998         35          
1990-03-08 18   18.6    95.4    999         33          
1990-03-09 00   17.5    95.9   1000         31          
1990-03-09 06   17.0    96.3   1002         27          
1990-03-09 12   16.6    96.6   1002         27          
1990-03-09 18   16.2    96.8   1002         27          
1990-03-10 00   15.8    97.2   1003         27          
1990-03-10 06   15.4    97.8   1004         25          
1990-03-10 12   15.2    98.2   1003         27          
1990-03-10 18   14.8    98.3   1002         27          
1990-03-11 00   14.3    98.4   1002         27          
1990-03-11 06   14.0    98.2   1000         31          
1990-03-11 12   13.8    98.0   1000         31          
1990-03-11 18   13.5    97.7   1000         31          
1990-03-12 00   13.3    97.4    998         35          
1990-03-12 06   13.2    97.0    997         35          
1990-03-12 12   12.8    95.7    997         35          
1990-03-12 18   12.6    94.4    996         37          
1990-03-13 00   12.3    93.2    990    1    47          
1990-03-13 06   12.1    91.8    988    1    49          
1990-03-13 12   12.0    90.8    985    2    54          
1990-03-13 18   11.8    89.6    983    2    56          
1990-03-14 00   11.7    89.0    980    2    60          
1990-03-14 06   11.6    88.5    978    2    64          
1990-03-14 12   11.6    87.8    976    2    66          
Winds are 10-min average.

Tropical cyclone tracks developed by Michael Bath using data from the Bureau of Meteorology and Google Maps.


[Australian Severe Weather index] [Copyright Notice] [Email Contacts] [Search This Site] [Privacy Policy]
Document: tropical_cyclone_walter.htm Updated: 30 May 2013